createdAt,value
2019-03-27T00:01:44.893Z,10.50
2019-03-27T00:06:49.926Z,10.50
2019-03-27T00:11:55.184Z,10.50
2019-03-27T00:17:00.342Z,10.40
2019-03-27T00:22:05.480Z,10.50
2019-03-27T00:27:10.827Z,10.40
2019-03-27T00:32:16.005Z,10.40
2019-03-27T00:37:21.130Z,10.40
2019-03-27T00:42:26.250Z,10.50
2019-03-27T00:47:31.562Z,10.50
2019-03-27T00:52:37.046Z,10.40
2019-03-27T00:57:42.223Z,10.40
2019-03-27T01:02:47.509Z,10.20
2019-03-27T01:07:53.144Z,10.40
2019-03-27T01:12:58.446Z,7.00
2019-03-27T01:18:03.838Z,10.40
2019-03-27T01:23:09.142Z,10.50
2019-03-27T01:28:14.730Z,11.00
2019-03-27T01:33:19.966Z,13.00
2019-03-27T01:38:25.410Z,10.50
2019-03-27T01:43:30.732Z,10.50
2019-03-27T01:48:35.989Z,10.40
2019-03-27T01:53:41.480Z,10.40
2019-03-27T01:58:46.687Z,7.40
2019-03-27T02:03:51.830Z,10.30
2019-03-27T02:08:57.181Z,10.40
2019-03-27T02:14:02.338Z,10.40
2019-03-27T02:19:10.948Z,10.30
2019-03-27T02:24:16.071Z,10.30
2019-03-27T02:29:21.636Z,5.90
2019-03-27T02:34:26.851Z,10.20
2019-03-27T02:39:32.019Z,10.10
2019-03-27T02:44:37.141Z,9.90
2019-03-27T02:49:42.519Z,10.40
2019-03-27T02:54:47.924Z,9.90
2019-03-27T02:59:53.142Z,9.70
2019-03-27T03:04:58.493Z,9.90
2019-03-27T03:10:03.952Z,9.90
2019-03-27T03:15:10.635Z,9.80
2019-03-27T03:20:15.912Z,9.70
2019-03-27T03:25:21.167Z,5.90
2019-03-27T03:30:26.473Z,9.90
2019-03-27T03:35:31.761Z,9.90
2019-03-27T03:40:36.851Z,9.90
2019-03-27T03:45:42.312Z,9.90
2019-03-27T03:50:47.786Z,9.90
2019-03-27T03:55:54.721Z,9.80
2019-03-27T04:01:01.798Z,9.80
2019-03-27T04:06:07.756Z,9.80
2019-03-27T04:11:13.044Z,13.10
2019-03-27T04:16:18.225Z,9.70
2019-03-27T04:21:27.108Z,9.80
2019-03-27T04:26:33.659Z,9.80
2019-03-27T04:31:39.342Z,9.80
2019-03-27T04:36:44.622Z,9.70
2019-03-27T04:41:49.921Z,11.60
2019-03-27T04:46:54.987Z,9.70
2019-03-27T04:52:00.144Z,9.70
2019-03-27T04:57:05.491Z,9.70
2019-03-27T05:02:10.737Z,9.60
2019-03-27T05:07:16.065Z,9.40
2019-03-27T05:12:21.317Z,9.60
2019-03-27T05:17:26.555Z,9.70
2019-03-27T05:22:31.781Z,9.70
2019-03-27T05:27:36.973Z,9.80
2019-03-27T05:32:42.202Z,9.70
2019-03-27T05:37:47.580Z,9.70
2019-03-27T05:43:00.557Z,6.80
2019-03-27T05:48:00.221Z,9.70
2019-03-27T05:53:05.554Z,9.60
2019-03-27T05:58:10.979Z,11.30
2019-03-27T06:03:16.077Z,9.80
2019-03-27T06:08:21.506Z,5.30
2019-03-27T06:13:26.782Z,10.10
2019-03-27T06:18:31.887Z,10.10
2019-03-27T06:23:37.019Z,10.20
2019-03-27T06:28:42.291Z,10.30
2019-03-27T06:33:51.591Z,10.40
2019-03-27T06:38:56.910Z,10.50
2019-03-27T06:44:02.202Z,10.50
2019-03-27T06:49:07.471Z,13.10
2019-03-27T06:54:12.532Z,10.70
2019-03-27T06:59:17.814Z,10.60
2019-03-27T07:04:22.807Z,10.60
2019-03-27T07:09:28.155Z,9.80
2019-03-27T07:14:33.474Z,10.00
2019-03-27T07:19:38.708Z,9.70
2019-03-27T07:24:43.854Z,9.60
2019-03-27T07:29:49.060Z,9.60
2019-03-27T07:34:54.386Z,9.90
2019-03-27T07:39:59.630Z,9.70
2019-03-27T07:45:05.332Z,10.10
2019-03-27T07:50:11.403Z,10.20
2019-03-27T07:55:19.545Z,13.90
2019-03-27T08:00:24.105Z,11.00
2019-03-27T08:05:29.292Z,11.90
2019-03-27T08:10:34.633Z,12.40
2019-03-27T08:15:40.980Z,12.70
2019-03-27T08:20:46.451Z,14.70
2019-03-27T08:25:51.629Z,15.50
2019-03-27T08:30:56.966Z,15.00
2019-03-27T08:36:02.234Z,15.60
2019-03-27T08:41:07.397Z,15.20
2019-03-27T08:46:12.510Z,14.60
2019-03-27T08:51:17.718Z,14.20
2019-03-27T08:56:22.836Z,15.20
2019-03-27T09:01:28.070Z,17.00
2019-03-27T09:06:34.283Z,17.40
2019-03-27T09:11:40.006Z,18.80
2019-03-27T09:16:45.306Z,19.10
2019-03-27T09:21:50.507Z,18.20
2019-03-27T09:26:55.607Z,16.90
2019-03-27T09:32:00.699Z,14.80
2019-03-27T09:37:05.970Z,14.80
2019-03-27T09:42:11.500Z,16.10
2019-03-27T09:47:16.640Z,16.90
2019-03-27T09:52:21.895Z,16.70
2019-03-27T09:57:27.260Z,16.40
2019-03-27T10:02:32.510Z,16.60
2019-03-27T10:07:37.793Z,15.90
2019-03-27T10:12:43.159Z,16.40
2019-03-27T10:17:48.386Z,16.20
2019-03-27T10:22:53.930Z,16.20
2019-03-27T10:27:59.253Z,16.10
2019-03-27T10:33:04.458Z,16.10
2019-03-27T10:38:09.763Z,15.70
2019-03-27T10:43:14.883Z,15.80
2019-03-27T10:48:20.274Z,15.60
2019-03-27T10:53:25.538Z,16.00
2019-03-27T10:58:30.825Z,16.40
2019-03-27T11:03:35.991Z,16.60
2019-03-27T11:08:41.323Z,16.30
2019-03-27T11:13:46.458Z,17.70
2019-03-27T11:18:51.910Z,18.60
2019-03-27T11:23:57.655Z,19.00
2019-03-27T11:29:02.853Z,18.30
2019-03-27T11:34:08.178Z,17.30
2019-03-27T11:39:13.470Z,17.40
2019-03-27T11:44:18.970Z,13.40
2019-03-27T11:49:24.187Z,16.30
2019-03-27T11:54:29.483Z,16.70
2019-03-27T11:59:34.594Z,16.70
2019-03-27T12:04:39.702Z,17.10
2019-03-27T12:09:44.896Z,17.20
2019-03-27T12:14:49.915Z,17.20
2019-03-27T12:19:55.162Z,17.30
2019-03-27T12:25:00.362Z,17.40
2019-03-27T12:30:07.075Z,17.40
2019-03-27T12:35:12.270Z,17.90
2019-03-27T12:40:17.661Z,17.80
2019-03-27T12:45:22.837Z,18.40
2019-03-27T12:50:28.090Z,18.50
2019-03-27T12:55:33.419Z,19.40
2019-03-27T13:00:38.807Z,19.60
2019-03-27T13:05:44.063Z,19.10
2019-03-27T13:10:49.338Z,19.10
2019-03-27T13:15:54.579Z,19.10
2019-03-27T13:20:59.582Z,18.90
2019-03-27T13:26:04.767Z,18.10
2019-03-27T13:31:10.015Z,17.70
2019-03-27T13:36:15.202Z,17.50
2019-03-27T13:41:20.479Z,17.60
2019-03-27T13:46:25.679Z,17.50
2019-03-27T13:51:40.549Z,17.60
2019-03-27T13:56:37.650Z,17.50
2019-03-27T14:01:42.761Z,17.40
2019-03-27T14:06:48.047Z,17.40
2019-03-27T14:11:53.168Z,17.60
2019-03-27T14:16:58.603Z,17.70
2019-03-27T14:22:04.084Z,17.80
2019-03-27T14:27:09.484Z,17.50
2019-03-27T14:32:14.994Z,17.00
2019-03-27T14:37:20.567Z,16.70
2019-03-27T14:42:25.679Z,16.70
2019-03-27T14:47:31.081Z,16.70
2019-03-27T14:52:36.404Z,16.80
2019-03-27T14:57:41.847Z,16.90
2019-03-27T15:02:47.055Z,16.90
2019-03-27T15:07:52.447Z,16.80
2019-03-27T15:12:57.703Z,17.00
2019-03-27T15:18:02.873Z,16.90
2019-03-27T15:23:07.995Z,16.90
2019-03-27T15:28:13.187Z,16.50
2019-03-27T15:33:18.374Z,16.30
2019-03-27T15:38:23.489Z,16.30
2019-03-27T15:43:29.037Z,16.10
2019-03-27T15:48:34.232Z,16.00
2019-03-27T15:53:39.561Z,15.90
2019-03-27T15:58:44.906Z,16.00
2019-03-27T16:03:50.155Z,16.10
2019-03-27T16:08:55.603Z,16.10
2019-03-27T16:14:00.925Z,16.10
2019-03-27T16:19:06.286Z,16.10
2019-03-27T16:24:11.706Z,16.00
2019-03-27T16:29:16.908Z,15.70
2019-03-27T16:34:25.136Z,15.60
2019-03-27T16:39:33.852Z,15.60
2019-03-27T16:44:40.748Z,15.40
2019-03-27T16:49:48.492Z,15.40
2019-03-27T16:54:53.872Z,15.30
2019-03-27T16:59:59.182Z,15.20
2019-03-27T17:05:05.051Z,15.30
2019-03-27T17:10:10.363Z,15.20
2019-03-27T17:15:15.690Z,15.10
2019-03-27T17:20:20.955Z,14.90
2019-03-27T17:25:26.398Z,14.60
2019-03-27T17:30:32.051Z,14.70
2019-03-27T17:35:37.670Z,14.70
2019-03-27T17:40:42.919Z,14.50
2019-03-27T17:45:48.210Z,14.50
2019-03-27T17:50:53.519Z,14.40
2019-03-27T17:55:58.662Z,14.20
2019-03-27T18:01:05.151Z,14.20
2019-03-27T18:06:10.410Z,14.10
2019-03-27T18:11:15.899Z,14.00
2019-03-27T18:16:20.960Z,13.80
2019-03-27T18:21:26.393Z,13.70
2019-03-27T18:26:31.575Z,13.70
2019-03-27T18:31:36.748Z,13.90
2019-03-27T18:36:42.122Z,13.90
2019-03-27T18:41:56.971Z,14.00
2019-03-27T18:47:02.226Z,13.50
2019-03-27T18:52:07.656Z,13.80
2019-03-27T18:57:12.910Z,13.10
2019-03-27T19:02:18.229Z,13.20
2019-03-27T19:07:23.411Z,13.20
2019-03-27T19:12:29.489Z,16.10
2019-03-27T19:17:34.688Z,12.70
2019-03-27T19:22:39.994Z,12.90
2019-03-27T19:27:45.229Z,14.80
2019-03-27T19:32:50.455Z,16.30
2019-03-27T19:37:55.747Z,12.40
2019-03-27T19:43:00.903Z,12.50
2019-03-27T19:48:06.306Z,12.50
2019-03-27T19:53:11.419Z,12.60
2019-03-27T19:58:16.972Z,12.50
2019-03-27T20:03:22.289Z,12.20
2019-03-27T20:08:27.509Z,12.00
2019-03-27T20:13:32.696Z,12.10
2019-03-27T20:18:37.955Z,11.80
2019-03-27T20:23:43.102Z,12.50
2019-03-27T20:28:48.351Z,12.90
2019-03-27T20:33:53.701Z,13.00
2019-03-27T20:38:58.995Z,12.80
2019-03-27T20:44:04.271Z,12.80
2019-03-27T20:49:09.563Z,12.90
2019-03-27T20:54:15.092Z,12.90
2019-03-27T20:59:20.195Z,13.00
2019-03-27T21:04:25.548Z,13.00
2019-03-27T21:09:30.775Z,13.10
2019-03-27T21:14:36.006Z,12.80
2019-03-27T21:19:41.451Z,13.00
2019-03-27T21:24:46.691Z,14.20
2019-03-27T21:29:52.092Z,13.20
2019-03-27T21:34:57.383Z,13.20
2019-03-27T21:40:02.690Z,13.20
2019-03-27T21:45:09.013Z,13.20
2019-03-27T21:50:14.635Z,13.20
2019-03-27T21:55:22.880Z,13.20
2019-03-27T22:00:40.729Z,13.20
2019-03-27T22:05:46.663Z,13.20
2019-03-27T22:10:52.002Z,13.20
2019-03-27T22:15:57.126Z,13.20
2019-03-27T22:21:02.274Z,13.30
2019-03-27T22:26:09.936Z,14.40
2019-03-27T22:31:15.118Z,13.20
2019-03-27T22:36:20.409Z,13.30
2019-03-27T22:41:25.590Z,13.80
2019-03-27T22:46:30.845Z,13.20
2019-03-27T22:51:36.070Z,13.20
2019-03-27T22:56:41.249Z,13.20
2019-03-27T23:01:47.304Z,13.20
2019-03-27T23:06:52.649Z,13.20
2019-03-27T23:11:57.752Z,13.20
2019-03-27T23:17:03.019Z,13.20
2019-03-27T23:22:08.346Z,13.20
2019-03-27T23:27:13.581Z,13.20
2019-03-27T23:32:18.650Z,13.20
2019-03-27T23:37:23.881Z,13.20
2019-03-27T23:42:29.127Z,13.10
2019-03-27T23:47:34.368Z,13.10
2019-03-27T23:52:39.531Z,13.10
2019-03-27T23:57:44.959Z,13.10
